Mascote, Brazil
Current Conditions -  °F | °C
As of 1:00 AM on Sunday 26 Oct 2014 (Local Time) from SBIL Reporting Station
Scattered Clouds Scattered Clouds  
Wind Chill: 77°   Ceiling: Unl
Heat Index: 79°   Visibility: 6mi
Dew Point: 70°   Wind: 12mph
Humidity: 78%   Direction: 30°NNE
Pressure: 29.91"   Gusts: NA
Location:  15.56°S, 39.3°W
Report Text: SBIL 260400Z 03010KT 9999 SCT020 25/21 Q1013
Loading
Personal Weather Stations






























Interactive Weather Map
Tropical Storm Tracking
New forecast layout! Learn more

10-Day Weather Forecast

Advertisements
Track Severe Weather on mobile